sensor_id;sensor_type;location;lat;lon;timestamp;P1;durP1;ratioP1;P2;durP2;ratioP2
3867;SDS011;1949;48.152;11.528;2023-08-17T00:00:40;12.10;;;7.97;;
3867;SDS011;1949;48.152;11.528;2023-08-17T00:03:05;9.37;;;5.77;;
3867;SDS011;1949;48.152;11.528;2023-08-17T00:05:31;12.20;;;6.80;;
3867;SDS011;1949;48.152;11.528;2023-08-17T00:08:00;10.83;;;5.70;;
3867;SDS011;1949;48.152;11.528;2023-08-17T00:10:27;10.13;;;7.27;;
3867;SDS011;1949;48.152;11.528;2023-08-17T00:13:02;8.03;;;4.87;;
3867;SDS011;1949;48.152;11.528;2023-08-17T00:15:29;16.33;;;5.57;;
3867;SDS011;1949;48.152;11.528;2023-08-17T00:17:56;5.53;;;4.43;;
3867;SDS011;1949;48.152;11.528;2023-08-17T00:20:22;9.80;;;7.10;;
3867;SDS011;1949;48.152;11.528;2023-08-17T00:22:48;34.40;;;18.80;;
3867;SDS011;1949;48.152;11.528;2023-08-17T00:25:14;13.60;;;7.77;;
3867;SDS011;1949;48.152;11.528;2023-08-17T00:27:39;7.90;;;5.90;;
3867;SDS011;1949;48.152;11.528;2023-08-17T00:32:34;9.07;;;5.17;;
3867;SDS011;1949;48.152;11.528;2023-08-17T00:35:00;8.20;;;5.70;;
3867;SDS011;1949;48.152;11.528;2023-08-17T00:37:31;15.53;;;4.77;;
3867;SDS011;1949;48.152;11.528;2023-08-17T00:39:57;8.77;;;5.50;;
3867;SDS011;1949;48.152;11.528;2023-08-17T00:42:22;10.90;;;5.60;;
3867;SDS011;1949;48.152;11.528;2023-08-17T00:44:51;6.23;;;4.80;;
3867;SDS011;1949;48.152;11.528;2023-08-17T00:47:17;8.60;;;4.70;;
3867;SDS011;1949;48.152;11.528;2023-08-17T00:49:43;6.67;;;4.30;;
3867;SDS011;1949;48.152;11.528;2023-08-17T00:52:10;9.70;;;4.60;;
3867;SDS011;1949;48.152;11.528;2023-08-17T00:54:36;9.23;;;5.90;;
3867;SDS011;1949;48.152;11.528;2023-08-17T00:59:31;7.50;;;4.87;;
3867;SDS011;1949;48.152;11.528;2023-08-17T01:01:57;7.83;;;4.90;;
3867;SDS011;1949;48.152;11.528;2023-08-17T01:04:23;6.70;;;5.00;;
3867;SDS011;1949;48.152;11.528;2023-08-17T01:06:49;7.17;;;4.93;;
3867;SDS011;1949;48.152;11.528;2023-08-17T01:09:14;8.10;;;5.23;;
3867;SDS011;1949;48.152;11.528;2023-08-17T01:11:52;8.10;;;4.60;;
3867;SDS011;1949;48.152;11.528;2023-08-17T01:14:43;5.20;;;4.53;;
3867;SDS011;1949;48.152;11.528;2023-08-17T01:17:20;8.03;;;4.33;;
3867;SDS011;1949;48.152;11.528;2023-08-17T01:19:50;6.10;;;4.17;;
3867;SDS011;1949;48.152;11.528;2023-08-17T01:22:17;16.53;;;4.17;;
3867;SDS011;1949;48.152;11.528;2023-08-17T01:24:47;5.97;;;5.07;;
3867;SDS011;1949;48.152;11.528;2023-08-17T01:27:13;5.90;;;4.37;;
3867;SDS011;1949;48.152;11.528;2023-08-17T01:29:41;9.37;;;4.80;;
3867;SDS011;1949;48.152;11.528;2023-08-17T01:32:10;5.40;;;4.10;;
3867;SDS011;1949;48.152;11.528;2023-08-17T01:34:44;8.40;;;5.53;;
3867;SDS011;1949;48.152;11.528;2023-08-17T01:37:18;13.07;;;5.00;;
3867;SDS011;1949;48.152;11.528;2023-08-17T01:39:48;10.40;;;5.10;;
3867;SDS011;1949;48.152;11.528;2023-08-17T01:42:17;7.47;;;4.80;;
3867;SDS011;1949;48.152;11.528;2023-08-17T01:44:45;11.70;;;5.37;;
3867;SDS011;1949;48.152;11.528;2023-08-17T01:47:11;8.13;;;5.13;;
3867;SDS011;1949;48.152;11.528;2023-08-17T01:49:38;7.70;;;5.27;;
3867;SDS011;1949;48.152;11.528;2023-08-17T01:52:04;6.77;;;5.00;;
3867;SDS011;1949;48.152;11.528;2023-08-17T01:54:30;5.07;;;4.23;;
3867;SDS011;1949;48.152;11.528;2023-08-17T01:56:59;6.90;;;5.03;;
3867;SDS011;1949;48.152;11.528;2023-08-17T02:01:54;9.23;;;5.53;;
3867;SDS011;1949;48.152;11.528;2023-08-17T02:04:20;15.70;;;6.57;;
3867;SDS011;1949;48.152;11.528;2023-08-17T02:06:47;8.57;;;4.80;;
3867;SDS011;1949;48.152;11.528;2023-08-17T02:09:14;8.20;;;4.90;;
3867;SDS011;1949;48.152;11.528;2023-08-17T02:11:48;5.83;;;4.90;;
3867;SDS011;1949;48.152;11.528;2023-08-17T02:14:13;7.67;;;5.50;;
3867;SDS011;1949;48.152;11.528;2023-08-17T02:16:39;9.30;;;5.10;;
3867;SDS011;1949;48.152;11.528;2023-08-17T02:19:05;8.33;;;5.30;;
3867;SDS011;1949;48.152;11.528;2023-08-17T02:21:31;9.73;;;5.20;;
3867;SDS011;1949;48.152;11.528;2023-08-17T02:23:58;7.00;;;4.60;;
3867;SDS011;1949;48.152;11.528;2023-08-17T02:26:24;6.87;;;5.17;;
3867;SDS011;1949;48.152;11.528;2023-08-17T02:28:52;16.07;;;5.57;;
3867;SDS011;1949;48.152;11.528;2023-08-17T02:31:18;11.70;;;4.80;;
3867;SDS011;1949;48.152;11.528;2023-08-17T02:33:44;5.87;;;5.03;;
3867;SDS011;1949;48.152;11.528;2023-08-17T02:36:12;8.30;;;5.10;;
3867;SDS011;1949;48.152;11.528;2023-08-17T02:38:38;9.90;;;5.77;;
3867;SDS011;1949;48.152;11.528;2023-08-17T02:41:03;8.43;;;5.77;;
3867;SDS011;1949;48.152;11.528;2023-08-17T02:43:29;5.73;;;4.80;;
3867;SDS011;1949;48.152;11.528;2023-08-17T02:45:55;9.33;;;5.00;;
3867;SDS011;1949;48.152;11.528;2023-08-17T02:48:20;7.63;;;5.70;;
3867;SDS011;1949;48.152;11.528;2023-08-17T02:50:49;8.67;;;5.10;;
3867;SDS011;1949;48.152;11.528;2023-08-17T02:53:15;9.60;;;5.40;;
3867;SDS011;1949;48.152;11.528;2023-08-17T02:55:41;6.97;;;5.60;;
3867;SDS011;1949;48.152;11.528;2023-08-17T02:58:10;11.10;;;5.40;;
3867;SDS011;1949;48.152;11.528;2023-08-17T03:00:36;11.87;;;4.90;;
3867;SDS011;1949;48.152;11.528;2023-08-17T03:03:01;9.13;;;5.50;;
3867;SDS011;1949;48.152;11.528;2023-08-17T03:05:31;7.33;;;5.60;;
3867;SDS011;1949;48.152;11.528;2023-08-17T03:07:56;8.23;;;5.20;;
3867;SDS011;1949;48.152;11.528;2023-08-17T03:10:22;6.37;;;5.20;;
3867;SDS011;1949;48.152;11.528;2023-08-17T03:12:50;6.90;;;4.87;;
3867;SDS011;1949;48.152;11.528;2023-08-17T03:15:16;9.23;;;5.00;;
3867;SDS011;1949;48.152;11.528;2023-08-17T03:17:41;10.43;;;4.83;;
3867;SDS011;1949;48.152;11.528;2023-08-17T03:20:07;5.77;;;5.13;;
3867;SDS011;1949;48.152;11.528;2023-08-17T03:22:34;7.83;;;4.33;;
3867;SDS011;1949;48.152;11.528;2023-08-17T03:25:01;10.63;;;5.30;;
3867;SDS011;1949;48.152;11.528;2023-08-17T03:27:28;6.93;;;4.20;;
3867;SDS011;1949;48.152;11.528;2023-08-17T03:29:55;8.63;;;5.20;;
3867;SDS011;1949;48.152;11.528;2023-08-17T03:32:23;8.37;;;4.80;;
3867;SDS011;1949;48.152;11.528;2023-08-17T03:34:48;5.00;;;4.50;;
3867;SDS011;1949;48.152;11.528;2023-08-17T03:37:15;10.20;;;4.93;;
3867;SDS011;1949;48.152;11.528;2023-08-17T03:39:42;6.47;;;4.70;;
3867;SDS011;1949;48.152;11.528;2023-08-17T03:42:07;7.37;;;4.63;;
3867;SDS011;1949;48.152;11.528;2023-08-17T03:44:35;7.00;;;5.00;;
3867;SDS011;1949;48.152;11.528;2023-08-17T03:47:02;6.27;;;4.90;;
3867;SDS011;1949;48.152;11.528;2023-08-17T03:49:32;5.87;;;4.80;;
3867;SDS011;1949;48.152;11.528;2023-08-17T03:51:57;6.83;;;4.40;;
3867;SDS011;1949;48.152;11.528;2023-08-17T03:54:25;5.77;;;4.80;;
3867;SDS011;1949;48.152;11.528;2023-08-17T03:59:21;9.90;;;5.67;;
3867;SDS011;1949;48.152;11.528;2023-08-17T04:01:47;9.70;;;6.33;;
3867;SDS011;1949;48.152;11.528;2023-08-17T04:04:14;15.47;;;9.03;;
3867;SDS011;1949;48.152;11.528;2023-08-17T04:06:42;15.80;;;8.23;;
3867;SDS011;1949;48.152;11.528;2023-08-17T04:09:07;12.80;;;7.90;;
3867;SDS011;1949;48.152;11.528;2023-08-17T04:11:34;10.97;;;6.23;;
3867;SDS011;1949;48.152;11.528;2023-08-17T04:14:03;9.27;;;5.70;;
3867;SDS011;1949;48.152;11.528;2023-08-17T04:16:30;9.13;;;6.20;;
3867;SDS011;1949;48.152;11.528;2023-08-17T04:18:55;12.77;;;7.27;;
3867;SDS011;1949;48.152;11.528;2023-08-17T04:21:30;8.60;;;5.53;;
3867;SDS011;1949;48.152;11.528;2023-08-17T04:23:56;10.00;;;5.43;;
3867;SDS011;1949;48.152;11.528;2023-08-17T04:26:22;6.80;;;4.80;;
3867;SDS011;1949;48.152;11.528;2023-08-17T04:28:48;8.30;;;5.47;;
3867;SDS011;1949;48.152;11.528;2023-08-17T04:31:14;12.60;;;8.00;;
3867;SDS011;1949;48.152;11.528;2023-08-17T04:33:46;6.23;;;4.70;;
3867;SDS011;1949;48.152;11.528;2023-08-17T04:36:12;9.43;;;6.93;;
3867;SDS011;1949;48.152;11.528;2023-08-17T04:38:37;18.63;;;10.30;;
3867;SDS011;1949;48.152;11.528;2023-08-17T04:41:09;20.83;;;12.97;;
3867;SDS011;1949;48.152;11.528;2023-08-17T04:43:35;11.03;;;6.37;;
3867;SDS011;1949;48.152;11.528;2023-08-17T04:46:01;15.03;;;8.50;;
3867;SDS011;1949;48.152;11.528;2023-08-17T04:48:29;10.47;;;7.00;;
3867;SDS011;1949;48.152;11.528;2023-08-17T04:50:55;14.43;;;8.33;;
3867;SDS011;1949;48.152;11.528;2023-08-17T04:55:50;9.97;;;5.80;;
3867;SDS011;1949;48.152;11.528;2023-08-17T04:58:17;11.53;;;7.03;;
3867;SDS011;1949;48.152;11.528;2023-08-17T05:00:45;12.27;;;8.20;;
3867;SDS011;1949;48.152;11.528;2023-08-17T05:03:11;18.03;;;9.47;;
3867;SDS011;1949;48.152;11.528;2023-08-17T05:05:39;11.97;;;7.60;;
3867;SDS011;1949;48.152;11.528;2023-08-17T05:08:07;12.30;;;7.00;;
3867;SDS011;1949;48.152;11.528;2023-08-17T05:10:32;17.23;;;10.90;;
3867;SDS011;1949;48.152;11.528;2023-08-17T05:12:58;24.03;;;14.90;;
3867;SDS011;1949;48.152;11.528;2023-08-17T05:15:26;26.27;;;15.07;;
3867;SDS011;1949;48.152;11.528;2023-08-17T05:17:55;24.70;;;14.37;;
3867;SDS011;1949;48.152;11.528;2023-08-17T05:20:22;21.73;;;13.20;;
3867;SDS011;1949;48.152;11.528;2023-08-17T05:22:57;21.67;;;13.00;;
3867;SDS011;1949;48.152;11.528;2023-08-17T05:25:23;24.90;;;14.20;;
3867;SDS011;1949;48.152;11.528;2023-08-17T05:27:51;24.03;;;15.07;;
3867;SDS011;1949;48.152;11.528;2023-08-17T05:32:48;18.33;;;9.47;;
3867;SDS011;1949;48.152;11.528;2023-08-17T05:35:13;23.13;;;14.03;;
3867;SDS011;1949;48.152;11.528;2023-08-17T05:40:15;15.47;;;9.30;;
3867;SDS011;1949;48.152;11.528;2023-08-17T05:42:42;16.13;;;9.13;;
3867;SDS011;1949;48.152;11.528;2023-08-17T05:45:08;13.50;;;7.20;;
3867;SDS011;1949;48.152;11.528;2023-08-17T05:47:34;39.63;;;22.67;;
3867;SDS011;1949;48.152;11.528;2023-08-17T05:50:01;19.13;;;10.67;;
3867;SDS011;1949;48.152;11.528;2023-08-17T05:54:56;20.33;;;9.07;;
3867;SDS011;1949;48.152;11.528;2023-08-17T05:57:22;21.23;;;12.83;;
3867;SDS011;1949;48.152;11.528;2023-08-17T05:59:47;11.03;;;7.30;;
3867;SDS011;1949;48.152;11.528;2023-08-17T06:02:15;24.20;;;11.97;;
3867;SDS011;1949;48.152;11.528;2023-08-17T06:04:53;21.73;;;11.30;;
3867;SDS011;1949;48.152;11.528;2023-08-17T06:07:21;9.33;;;6.60;;
3867;SDS011;1949;48.152;11.528;2023-08-17T06:09:47;17.93;;;6.67;;
3867;SDS011;1949;48.152;11.528;2023-08-17T06:12:12;11.20;;;7.10;;
3867;SDS011;1949;48.152;11.528;2023-08-17T06:14:38;18.20;;;11.70;;
3867;SDS011;1949;48.152;11.528;2023-08-17T06:17:04;18.57;;;10.50;;
3867;SDS011;1949;48.152;11.528;2023-08-17T06:19:31;24.23;;;11.13;;
3867;SDS011;1949;48.152;11.528;2023-08-17T06:21:57;27.27;;;9.40;;
3867;SDS011;1949;48.152;11.528;2023-08-17T06:24:25;18.30;;;10.40;;
3867;SDS011;1949;48.152;11.528;2023-08-17T06:26:52;22.53;;;11.53;;
3867;SDS011;1949;48.152;11.528;2023-08-17T06:29:24;9.80;;;6.23;;
3867;SDS011;1949;48.152;11.528;2023-08-17T06:31:53;18.37;;;8.33;;
3867;SDS011;1949;48.152;11.528;2023-08-17T06:34:20;14.90;;;7.83;;
3867;SDS011;1949;48.152;11.528;2023-08-17T06:39:28;20.43;;;11.40;;
3867;SDS011;1949;48.152;11.528;2023-08-17T06:42:05;20.07;;;12.03;;
3867;SDS011;1949;48.152;11.528;2023-08-17T06:44:32;22.07;;;9.90;;
3867;SDS011;1949;48.152;11.528;2023-08-17T06:47:00;19.30;;;8.30;;
3867;SDS011;1949;48.152;11.528;2023-08-17T06:52:01;24.43;;;11.10;;
3867;SDS011;1949;48.152;11.528;2023-08-17T06:54:28;18.77;;;10.93;;
3867;SDS011;1949;48.152;11.528;2023-08-17T06:56:54;10.30;;;5.70;;
3867;SDS011;1949;48.152;11.528;2023-08-17T06:59:23;34.80;;;18.40;;
3867;SDS011;1949;48.152;11.528;2023-08-17T07:01:56;21.70;;;11.97;;
3867;SDS011;1949;48.152;11.528;2023-08-17T07:04:22;13.70;;;8.03;;
3867;SDS011;1949;48.152;11.528;2023-08-17T07:06:49;9.23;;;6.07;;
3867;SDS011;1949;48.152;11.528;2023-08-17T07:09:21;14.80;;;5.10;;
3867;SDS011;1949;48.152;11.528;2023-08-17T07:11:50;24.90;;;13.40;;
3867;SDS011;1949;48.152;11.528;2023-08-17T07:16:50;9.73;;;6.07;;
3867;SDS011;1949;48.152;11.528;2023-08-17T07:21:50;32.37;;;15.80;;
3867;SDS011;1949;48.152;11.528;2023-08-17T07:24:22;8.00;;;5.90;;
3867;SDS011;1949;48.152;11.528;2023-08-17T07:26:51;15.47;;;8.80;;
3867;SDS011;1949;48.152;11.528;2023-08-17T07:31:54;12.63;;;8.27;;
3867;SDS011;1949;48.152;11.528;2023-08-17T07:34:24;20.10;;;11.27;;
3867;SDS011;1949;48.152;11.528;2023-08-17T07:36:53;17.37;;;9.70;;
3867;SDS011;1949;48.152;11.528;2023-08-17T07:39:18;24.33;;;13.13;;
3867;SDS011;1949;48.152;11.528;2023-08-17T07:41:44;18.70;;;11.80;;
3867;SDS011;1949;48.152;11.528;2023-08-17T07:44:10;23.50;;;14.10;;
3867;SDS011;1949;48.152;11.528;2023-08-17T07:46:36;14.77;;;8.37;;
3867;SDS011;1949;48.152;11.528;2023-08-17T07:49:02;39.27;;;22.87;;
3867;SDS011;1949;48.152;11.528;2023-08-17T07:51:29;27.47;;;16.20;;
3867;SDS011;1949;48.152;11.528;2023-08-17T07:53:56;14.33;;;8.27;;
3867;SDS011;1949;48.152;11.528;2023-08-17T07:56:32;17.20;;;9.00;;
3867;SDS011;1949;48.152;11.528;2023-08-17T07:59:05;12.43;;;6.87;;
3867;SDS011;1949;48.152;11.528;2023-08-17T08:01:42;7.90;;;6.00;;
3867;SDS011;1949;48.152;11.528;2023-08-17T08:04:08;6.00;;;5.00;;
3867;SDS011;1949;48.152;11.528;2023-08-17T08:09:04;12.13;;;7.47;;
3867;SDS011;1949;48.152;11.528;2023-08-17T08:14:06;39.60;;;19.43;;
3867;SDS011;1949;48.152;11.528;2023-08-17T08:16:33;10.50;;;7.90;;
3867;SDS011;1949;48.152;11.528;2023-08-17T08:18:59;10.80;;;6.67;;
3867;SDS011;1949;48.152;11.528;2023-08-17T08:23:56;10.03;;;6.30;;
3867;SDS011;1949;48.152;11.528;2023-08-17T08:26:35;8.00;;;5.17;;
3867;SDS011;1949;48.152;11.528;2023-08-17T08:29:02;10.73;;;5.27;;
3867;SDS011;1949;48.152;11.528;2023-08-17T08:31:28;7.67;;;5.77;;
3867;SDS011;1949;48.152;11.528;2023-08-17T08:33:53;15.00;;;9.20;;
3867;SDS011;1949;48.152;11.528;2023-08-17T08:36:21;16.53;;;11.83;;
3867;SDS011;1949;48.152;11.528;2023-08-17T08:38:46;15.60;;;9.57;;
3867;SDS011;1949;48.152;11.528;2023-08-17T08:41:12;12.80;;;8.07;;
3867;SDS011;1949;48.152;11.528;2023-08-17T08:43:38;16.23;;;10.37;;
3867;SDS011;1949;48.152;11.528;2023-08-17T08:46:04;13.33;;;7.17;;
3867;SDS011;1949;48.152;11.528;2023-08-17T08:48:31;11.97;;;6.70;;
3867;SDS011;1949;48.152;11.528;2023-08-17T08:50:58;19.33;;;9.40;;
3867;SDS011;1949;48.152;11.528;2023-08-17T08:53:37;9.37;;;6.93;;
3867;SDS011;1949;48.152;11.528;2023-08-17T08:56:04;8.67;;;6.10;;
3867;SDS011;1949;48.152;11.528;2023-08-17T08:58:33;9.40;;;6.70;;
3867;SDS011;1949;48.152;11.528;2023-08-17T09:01:04;12.53;;;7.20;;
3867;SDS011;1949;48.152;11.528;2023-08-17T09:03:31;11.27;;;7.47;;
3867;SDS011;1949;48.152;11.528;2023-08-17T09:05:58;13.33;;;8.50;;
3867;SDS011;1949;48.152;11.528;2023-08-17T09:08:27;8.07;;;6.23;;
3867;SDS011;1949;48.152;11.528;2023-08-17T09:10:54;10.00;;;6.80;;
3867;SDS011;1949;48.152;11.528;2023-08-17T09:13:21;9.43;;;6.20;;
3867;SDS011;1949;48.152;11.528;2023-08-17T09:15:47;6.50;;;4.60;;
3867;SDS011;1949;48.152;11.528;2023-08-17T09:18:14;9.67;;;6.53;;
3867;SDS011;1949;48.152;11.528;2023-08-17T09:20:42;6.70;;;4.83;;
3867;SDS011;1949;48.152;11.528;2023-08-17T09:23:18;10.93;;;6.40;;
3867;SDS011;1949;48.152;11.528;2023-08-17T09:25:46;8.10;;;6.20;;
3867;SDS011;1949;48.152;11.528;2023-08-17T09:28:16;7.73;;;6.30;;
3867;SDS011;1949;48.152;11.528;2023-08-17T09:30:54;13.00;;;6.17;;
3867;SDS011;1949;48.152;11.528;2023-08-17T09:33:25;9.67;;;7.17;;
3867;SDS011;1949;48.152;11.528;2023-08-17T09:35:53;14.30;;;7.23;;
3867;SDS011;1949;48.152;11.528;2023-08-17T09:38:21;15.33;;;6.90;;
3867;SDS011;1949;48.152;11.528;2023-08-17T09:40:47;12.03;;;6.27;;
3867;SDS011;1949;48.152;11.528;2023-08-17T09:43:19;15.00;;;6.20;;
3867;SDS011;1949;48.152;11.528;2023-08-17T09:45:48;7.00;;;4.90;;
3867;SDS011;1949;48.152;11.528;2023-08-17T09:48:17;6.10;;;4.53;;
3867;SDS011;1949;48.152;11.528;2023-08-17T09:50:46;6.90;;;4.97;;
3867;SDS011;1949;48.152;11.528;2023-08-17T09:53:13;7.40;;;5.50;;
3867;SDS011;1949;48.152;11.528;2023-08-17T09:55:41;8.10;;;5.07;;
3867;SDS011;1949;48.152;11.528;2023-08-17T09:58:07;12.17;;;4.47;;
3867;SDS011;1949;48.152;11.528;2023-08-17T10:00:33;6.77;;;4.60;;
3867;SDS011;1949;48.152;11.528;2023-08-17T10:03:03;7.93;;;4.87;;
3867;SDS011;1949;48.152;11.528;2023-08-17T10:05:30;7.30;;;4.00;;
3867;SDS011;1949;48.152;11.528;2023-08-17T10:08:00;10.70;;;4.40;;
3867;SDS011;1949;48.152;11.528;2023-08-17T10:10:29;5.50;;;4.50;;
3867;SDS011;1949;48.152;11.528;2023-08-17T10:13:08;5.40;;;3.97;;
3867;SDS011;1949;48.152;11.528;2023-08-17T10:19:13;6.37;;;4.40;;
3867;SDS011;1949;48.152;11.528;2023-08-17T10:22:00;6.87;;;4.60;;
3867;SDS011;1949;48.152;11.528;2023-08-17T10:24:33;9.20;;;4.63;;
3867;SDS011;1949;48.152;11.528;2023-08-17T10:27:02;7.47;;;4.73;;
3867;SDS011;1949;48.152;11.528;2023-08-17T10:29:29;9.50;;;5.93;;
3867;SDS011;1949;48.152;11.528;2023-08-17T10:31:56;7.30;;;4.53;;
3867;SDS011;1949;48.152;11.528;2023-08-17T10:34:24;8.83;;;6.50;;
3867;SDS011;1949;48.152;11.528;2023-08-17T10:36:51;7.87;;;5.63;;
3867;SDS011;1949;48.152;11.528;2023-08-17T10:39:21;6.40;;;4.80;;
3867;SDS011;1949;48.152;11.528;2023-08-17T10:41:48;8.00;;;5.53;;
3867;SDS011;1949;48.152;11.528;2023-08-17T10:44:14;8.30;;;5.60;;
3867;SDS011;1949;48.152;11.528;2023-08-17T10:46:41;7.67;;;5.77;;
3867;SDS011;1949;48.152;11.528;2023-08-17T10:49:23;7.60;;;6.07;;
3867;SDS011;1949;48.152;11.528;2023-08-17T10:52:08;9.30;;;5.57;;
3867;SDS011;1949;48.152;11.528;2023-08-17T10:54:38;8.20;;;6.37;;
3867;SDS011;1949;48.152;11.528;2023-08-17T11:02:56;41.23;;;22.73;;
3867;SDS011;1949;48.152;11.528;2023-08-17T11:05:41;58.27;;;32.27;;
3867;SDS011;1949;48.152;11.528;2023-08-17T11:08:33;111.57;;;59.60;;
3867;SDS011;1949;48.152;11.528;2023-08-17T11:11:09;36.23;;;20.17;;
3867;SDS011;1949;48.152;11.528;2023-08-17T11:13:44;17.77;;;7.50;;
3867;SDS011;1949;48.152;11.528;2023-08-17T11:16:11;17.60;;;12.07;;
3867;SDS011;1949;48.152;11.528;2023-08-17T11:18:38;18.93;;;10.40;;
3867;SDS011;1949;48.152;11.528;2023-08-17T11:21:06;11.07;;;6.73;;
3867;SDS011;1949;48.152;11.528;2023-08-17T11:23:34;41.97;;;24.47;;
3867;SDS011;1949;48.152;11.528;2023-08-17T11:28:31;102.10;;;58.03;;
3867;SDS011;1949;48.152;11.528;2023-08-17T11:31:02;27.83;;;16.80;;
3867;SDS011;1949;48.152;11.528;2023-08-17T11:33:30;169.47;;;95.33;;
3867;SDS011;1949;48.152;11.528;2023-08-17T11:36:00;115.47;;;63.30;;
3867;SDS011;1949;48.152;11.528;2023-08-17T11:38:31;81.47;;;44.77;;
3867;SDS011;1949;48.152;11.528;2023-08-17T11:41:05;13.60;;;7.20;;
3867;SDS011;1949;48.152;11.528;2023-08-17T11:43:33;12.03;;;8.07;;
3867;SDS011;1949;48.152;11.528;2023-08-17T11:45:59;24.70;;;16.93;;
3867;SDS011;1949;48.152;11.528;2023-08-17T11:48:26;21.13;;;13.27;;
3867;SDS011;1949;48.152;11.528;2023-08-17T11:50:53;15.07;;;10.03;;
3867;SDS011;1949;48.152;11.528;2023-08-17T11:53:20;10.73;;;7.00;;
3867;SDS011;1949;48.152;11.528;2023-08-17T11:55:46;16.20;;;10.87;;
3867;SDS011;1949;48.152;11.528;2023-08-17T11:58:11;12.20;;;9.07;;
3867;SDS011;1949;48.152;11.528;2023-08-17T12:00:41;84.37;;;50.17;;
3867;SDS011;1949;48.152;11.528;2023-08-17T12:03:12;22.83;;;15.33;;
3867;SDS011;1949;48.152;11.528;2023-08-17T12:05:39;53.37;;;31.63;;
3867;SDS011;1949;48.152;11.528;2023-08-17T12:08:07;20.80;;;12.67;;
3867;SDS011;1949;48.152;11.528;2023-08-17T12:10:33;17.70;;;13.33;;
3867;SDS011;1949;48.152;11.528;2023-08-17T12:13:00;22.37;;;16.30;;
3867;SDS011;1949;48.152;11.528;2023-08-17T12:15:33;19.13;;;11.87;;
3867;SDS011;1949;48.152;11.528;2023-08-17T12:18:01;13.63;;;9.90;;
3867;SDS011;1949;48.152;11.528;2023-08-17T12:20:29;11.37;;;6.67;;
3867;SDS011;1949;48.152;11.528;2023-08-17T12:22:57;10.00;;;7.10;;
3867;SDS011;1949;48.152;11.528;2023-08-17T12:25:23;81.53;;;48.27;;
3867;SDS011;1949;48.152;11.528;2023-08-17T12:27:50;131.40;;;77.40;;
3867;SDS011;1949;48.152;11.528;2023-08-17T12:30:25;76.23;;;48.90;;
3867;SDS011;1949;48.152;11.528;2023-08-17T12:32:57;19.20;;;13.70;;
3867;SDS011;1949;48.152;11.528;2023-08-17T12:35:24;36.67;;;23.20;;
3867;SDS011;1949;48.152;11.528;2023-08-17T12:37:51;18.73;;;12.53;;
3867;SDS011;1949;48.152;11.528;2023-08-17T12:40:17;17.37;;;10.43;;
3867;SDS011;1949;48.152;11.528;2023-08-17T12:42:43;41.77;;;26.70;;
3867;SDS011;1949;48.152;11.528;2023-08-17T12:45:09;97.00;;;56.57;;
3867;SDS011;1949;48.152;11.528;2023-08-17T12:47:35;111.30;;;67.60;;
3867;SDS011;1949;48.152;11.528;2023-08-17T12:50:00;56.33;;;35.33;;
3867;SDS011;1949;48.152;11.528;2023-08-17T12:52:28;22.17;;;15.27;;
3867;SDS011;1949;48.152;11.528;2023-08-17T12:54:54;15.67;;;10.33;;
3867;SDS011;1949;48.152;11.528;2023-08-17T12:57:20;9.73;;;6.80;;
3867;SDS011;1949;48.152;11.528;2023-08-17T12:59:45;7.93;;;5.70;;
3867;SDS011;1949;48.152;11.528;2023-08-17T13:02:11;6.17;;;5.57;;
3867;SDS011;1949;48.152;11.528;2023-08-17T13:04:37;8.97;;;6.63;;
3867;SDS011;1949;48.152;11.528;2023-08-17T13:07:02;58.53;;;35.50;;
3867;SDS011;1949;48.152;11.528;2023-08-17T13:09:28;70.17;;;43.20;;
3867;SDS011;1949;48.152;11.528;2023-08-17T13:11:54;103.37;;;63.43;;
3867;SDS011;1949;48.152;11.528;2023-08-17T13:14:20;68.77;;;42.27;;
3867;SDS011;1949;48.152;11.528;2023-08-17T13:16:47;30.23;;;21.10;;
3867;SDS011;1949;48.152;11.528;2023-08-17T13:19:17;22.47;;;14.80;;
3867;SDS011;1949;48.152;11.528;2023-08-17T13:21:44;31.10;;;18.50;;
3867;SDS011;1949;48.152;11.528;2023-08-17T13:24:11;15.77;;;10.50;;
3867;SDS011;1949;48.152;11.528;2023-08-17T13:26:39;14.60;;;8.67;;
3867;SDS011;1949;48.152;11.528;2023-08-17T13:29:04;9.07;;;6.83;;
3867;SDS011;1949;48.152;11.528;2023-08-17T13:31:30;14.07;;;7.80;;
3867;SDS011;1949;48.152;11.528;2023-08-17T13:33:56;12.53;;;7.17;;
3867;SDS011;1949;48.152;11.528;2023-08-17T13:36:22;40.10;;;24.10;;
3867;SDS011;1949;48.152;11.528;2023-08-17T13:38:47;179.40;;;104.80;;
3867;SDS011;1949;48.152;11.528;2023-08-17T13:41:13;170.33;;;109.43;;
3867;SDS011;1949;48.152;11.528;2023-08-17T13:43:39;68.90;;;41.70;;
3867;SDS011;1949;48.152;11.528;2023-08-17T13:46:05;34.90;;;21.73;;
3867;SDS011;1949;48.152;11.528;2023-08-17T13:48:31;23.90;;;13.77;;
3867;SDS011;1949;48.152;11.528;2023-08-17T13:50:56;15.90;;;12.17;;
3867;SDS011;1949;48.152;11.528;2023-08-17T13:53:22;100.37;;;62.10;;
3867;SDS011;1949;48.152;11.528;2023-08-17T13:55:48;147.23;;;91.90;;
3867;SDS011;1949;48.152;11.528;2023-08-17T13:58:13;34.30;;;21.37;;
3867;SDS011;1949;48.152;11.528;2023-08-17T14:00:40;24.87;;;15.80;;
3867;SDS011;1949;48.152;11.528;2023-08-17T14:03:06;10.47;;;7.87;;
3867;SDS011;1949;48.152;11.528;2023-08-17T14:05:32;14.23;;;8.17;;
3867;SDS011;1949;48.152;11.528;2023-08-17T14:07:58;14.03;;;10.63;;
3867;SDS011;1949;48.152;11.528;2023-08-17T14:10:24;11.80;;;7.70;;
3867;SDS011;1949;48.152;11.528;2023-08-17T14:12:50;11.10;;;8.00;;
3867;SDS011;1949;48.152;11.528;2023-08-17T14:15:15;8.13;;;5.90;;
3867;SDS011;1949;48.152;11.528;2023-08-17T14:17:41;8.07;;;6.00;;
3867;SDS011;1949;48.152;11.528;2023-08-17T14:20:07;7.43;;;4.73;;
3867;SDS011;1949;48.152;11.528;2023-08-17T14:22:33;12.13;;;5.30;;
3867;SDS011;1949;48.152;11.528;2023-08-17T14:24:59;7.83;;;5.73;;
3867;SDS011;1949;48.152;11.528;2023-08-17T14:27:25;4.97;;;4.40;;
3867;SDS011;1949;48.152;11.528;2023-08-17T14:29:50;6.07;;;4.73;;
3867;SDS011;1949;48.152;11.528;2023-08-17T14:32:16;7.20;;;5.47;;
3867;SDS011;1949;48.152;11.528;2023-08-17T14:34:42;14.53;;;6.00;;
3867;SDS011;1949;48.152;11.528;2023-08-17T14:37:09;8.37;;;5.80;;
3867;SDS011;1949;48.152;11.528;2023-08-17T14:39:34;14.53;;;5.90;;
3867;SDS011;1949;48.152;11.528;2023-08-17T14:42:00;7.80;;;6.20;;
3867;SDS011;1949;48.152;11.528;2023-08-17T14:44:26;8.63;;;5.27;;
3867;SDS011;1949;48.152;11.528;2023-08-17T14:46:51;8.10;;;6.50;;
3867;SDS011;1949;48.152;11.528;2023-08-17T14:49:17;6.00;;;5.40;;
3867;SDS011;1949;48.152;11.528;2023-08-17T14:51:43;10.40;;;5.40;;
3867;SDS011;1949;48.152;11.528;2023-08-17T14:54:10;10.90;;;6.00;;
3867;SDS011;1949;48.152;11.528;2023-08-17T14:56:36;29.17;;;17.13;;
3867;SDS011;1949;48.152;11.528;2023-08-17T14:59:02;43.53;;;28.83;;
3867;SDS011;1949;48.152;11.528;2023-08-17T15:01:28;127.73;;;77.13;;
3867;SDS011;1949;48.152;11.528;2023-08-17T15:03:55;51.23;;;33.37;;
3867;SDS011;1949;48.152;11.528;2023-08-17T15:06:21;29.07;;;14.37;;
3867;SDS011;1949;48.152;11.528;2023-08-17T15:08:49;10.27;;;7.60;;
3867;SDS011;1949;48.152;11.528;2023-08-17T15:11:17;21.17;;;14.77;;
3867;SDS011;1949;48.152;11.528;2023-08-17T15:13:43;91.63;;;58.17;;
3867;SDS011;1949;48.152;11.528;2023-08-17T15:16:09;105.67;;;69.37;;
3867;SDS011;1949;48.152;11.528;2023-08-17T15:18:37;59.67;;;36.33;;
3867;SDS011;1949;48.152;11.528;2023-08-17T15:21:03;27.07;;;17.10;;
3867;SDS011;1949;48.152;11.528;2023-08-17T15:23:36;19.17;;;12.87;;
3867;SDS011;1949;48.152;11.528;2023-08-17T15:26:02;7.20;;;5.80;;
3867;SDS011;1949;48.152;11.528;2023-08-17T15:28:28;9.03;;;6.47;;
3867;SDS011;1949;48.152;11.528;2023-08-17T15:31:01;9.43;;;8.00;;
3867;SDS011;1949;48.152;11.528;2023-08-17T15:33:31;12.10;;;7.50;;
3867;SDS011;1949;48.152;11.528;2023-08-17T15:35:57;11.30;;;6.40;;
3867;SDS011;1949;48.152;11.528;2023-08-17T15:38:24;17.47;;;7.30;;
3867;SDS011;1949;48.152;11.528;2023-08-17T15:40:51;8.43;;;6.97;;
3867;SDS011;1949;48.152;11.528;2023-08-17T15:43:16;6.97;;;5.47;;